createdAt,value
2022-12-13T00:01:21.350Z,-7.60
2022-12-13T00:03:48.308Z,-7.70
2022-12-13T00:06:15.335Z,-7.70
2022-12-13T00:08:42.282Z,-7.80
2022-12-13T00:11:11.598Z,-7.80
2022-12-13T00:13:38.697Z,-7.80
2022-12-13T00:16:07.206Z,-7.80
2022-12-13T00:18:34.368Z,-7.80
2022-12-13T00:21:04.817Z,-7.90
2022-12-13T00:23:34.268Z,-7.90
2022-12-13T00:26:05.154Z,-7.90
2022-12-13T00:28:34.473Z,-7.90
2022-12-13T00:31:26.979Z,-7.80
2022-12-13T00:33:49.295Z,-7.80
2022-12-13T00:36:16.560Z,-7.90
2022-12-13T00:38:43.686Z,-7.90
2022-12-13T00:41:11.925Z,-8.00
2022-12-13T00:43:41.120Z,-8.00
2022-12-13T00:46:15.834Z,-8.10
2022-12-13T00:48:45.545Z,-8.10
2022-12-13T00:51:17.091Z,-8.00
2022-12-13T00:53:44.063Z,-8.00
2022-12-13T00:56:12.865Z,-8.10
2022-12-13T00:58:45.058Z,-8.10
2022-12-13T01:01:17.018Z,-8.20
2022-12-13T01:03:44.038Z,-8.20
2022-12-13T01:06:15.735Z,-8.30
2022-12-13T01:08:46.408Z,-8.30
2022-12-13T01:11:13.419Z,-8.40
2022-12-13T01:13:43.656Z,-8.30
2022-12-13T01:16:11.153Z,-8.30
2022-12-13T01:18:40.910Z,-8.40
2022-12-13T01:21:10.012Z,-8.30
2022-12-13T01:23:37.093Z,-8.30
2022-12-13T01:26:07.959Z,-8.30
2022-12-13T01:28:37.212Z,-8.30
2022-12-13T01:31:06.516Z,-8.20
2022-12-13T01:33:36.288Z,-8.20
2022-12-13T01:36:05.409Z,-8.20
2022-12-13T01:38:32.502Z,-8.20
2022-12-13T01:41:09.019Z,-8.20
2022-12-13T01:43:46.999Z,-8.30
2022-12-13T01:46:17.418Z,-8.30
2022-12-13T01:48:57.693Z,-8.40
2022-12-13T01:51:27.614Z,-8.40
2022-12-13T01:53:57.034Z,-8.50
2022-12-13T01:56:28.703Z,-8.50
2022-12-13T01:58:59.994Z,-8.50
2022-12-13T02:01:27.664Z,-8.50
2022-12-13T02:03:57.112Z,-8.50
2022-12-13T02:06:33.635Z,-8.50
2022-12-13T02:09:01.458Z,-8.50
2022-12-13T02:11:31.821Z,-8.50
2022-12-13T02:13:58.670Z,-8.60
2022-12-13T02:16:53.049Z,-8.60
2022-12-13T02:19:22.182Z,-8.60
2022-12-13T02:21:58.322Z,-8.60
2022-12-13T02:24:44.003Z,-8.60
2022-12-13T02:27:13.064Z,-8.50
2022-12-13T02:29:49.188Z,-8.50
2022-12-13T02:32:19.128Z,-8.60
2022-12-13T02:34:54.212Z,-8.70
2022-12-13T02:37:26.547Z,-8.70
2022-12-13T02:40:00.156Z,-8.80
2022-12-13T02:42:35.214Z,-8.80
2022-12-13T02:45:20.263Z,-8.90
2022-12-13T02:47:49.748Z,-8.90
2022-12-13T02:50:16.978Z,-8.80
2022-12-13T02:52:46.458Z,-8.80
2022-12-13T02:55:17.265Z,-8.70
2022-12-13T02:57:45.223Z,-8.80
2022-12-13T03:00:12.455Z,-8.80
2022-12-13T03:02:45.399Z,-8.90
2022-12-13T03:05:31.130Z,-8.90
2022-12-13T03:08:10.303Z,-8.90
2022-12-13T03:11:00.428Z,-8.80
2022-12-13T03:13:37.857Z,-8.80
2022-12-13T03:16:23.218Z,-8.90
2022-12-13T03:18:52.721Z,-8.90
2022-12-13T03:21:22.427Z,-8.90
2022-12-13T03:23:49.510Z,-8.90
2022-12-13T03:26:26.366Z,-8.90
2022-12-13T03:28:53.727Z,-8.90
2022-12-13T03:31:20.618Z,-8.90
2022-12-13T03:33:47.588Z,-8.90
2022-12-13T03:36:15.356Z,-8.90
2022-12-13T03:38:42.220Z,-9.00
2022-12-13T03:41:13.002Z,-9.00
2022-12-13T03:43:40.559Z,-8.90
2022-12-13T03:46:10.540Z,-8.90
2022-12-13T03:48:37.491Z,-8.90
2022-12-13T03:51:04.588Z,-8.90
2022-12-13T03:53:33.012Z,-8.90
2022-12-13T03:56:04.179Z,-8.90
2022-12-13T03:58:35.250Z,-8.90
2022-12-13T04:01:11.025Z,-9.00
2022-12-13T04:03:38.789Z,-9.00
2022-12-13T04:06:06.189Z,-8.90
2022-12-13T04:08:33.549Z,-9.00
2022-12-13T04:11:20.513Z,-9.00
2022-12-13T04:13:47.322Z,-9.00
2022-12-13T04:16:14.809Z,-9.00
2022-12-13T04:18:41.880Z,-9.10
2022-12-13T04:21:11.060Z,-9.00
2022-12-13T04:23:37.865Z,-9.10
2022-12-13T04:26:07.149Z,-9.00
2022-12-13T04:28:36.477Z,-9.00
2022-12-13T04:31:03.415Z,-9.00
2022-12-13T04:33:32.937Z,-9.00
2022-12-13T04:35:59.822Z,-9.00
2022-12-13T04:38:26.695Z,-9.00
2022-12-13T04:40:53.564Z,-9.10
2022-12-13T04:43:22.723Z,-9.10
2022-12-13T04:45:49.865Z,-9.10
2022-12-13T04:48:31.019Z,-9.10
2022-12-13T04:51:01.048Z,-9.20
2022-12-13T04:53:31.566Z,-9.20
2022-12-13T04:56:01.283Z,-9.20
2022-12-13T04:58:28.184Z,-9.10
2022-12-13T05:00:55.165Z,-9.20
2022-12-13T05:03:22.329Z,-9.20
2022-12-13T05:05:51.720Z,-9.20
2022-12-13T05:08:21.814Z,-9.20
2022-12-13T05:10:50.875Z,-9.30
2022-12-13T05:13:17.714Z,-9.30
2022-12-13T05:15:49.523Z,-9.30
2022-12-13T05:18:20.502Z,-9.20
2022-12-13T05:20:47.395Z,-9.30
2022-12-13T05:23:14.175Z,-9.30
2022-12-13T05:25:49.877Z,-9.30
2022-12-13T05:28:27.877Z,-9.30
2022-12-13T05:30:56.566Z,-9.30
2022-12-13T05:33:26.240Z,-9.30
2022-12-13T05:36:00.020Z,-9.30
2022-12-13T05:38:31.374Z,-9.40
2022-12-13T05:40:58.355Z,-9.40
2022-12-13T05:43:42.154Z,-9.30
2022-12-13T05:46:10.605Z,-9.20
2022-12-13T05:48:37.626Z,-9.20
2022-12-13T05:51:10.641Z,-9.10
2022-12-13T05:53:39.273Z,-9.10
2022-12-13T05:56:08.999Z,-9.20
2022-12-13T05:58:36.603Z,-9.30
2022-12-13T06:01:12.859Z,-9.30
2022-12-13T06:03:42.690Z,-9.40
2022-12-13T06:06:13.017Z,-9.40
2022-12-13T06:08:40.085Z,-9.40
2022-12-13T06:11:11.148Z,-9.40
2022-12-13T06:13:43.689Z,-9.40
2022-12-13T06:16:22.520Z,-9.40
2022-12-13T06:18:55.792Z,-9.40
2022-12-13T06:21:31.181Z,-9.40
2022-12-13T06:24:10.661Z,-9.40
2022-12-13T06:26:37.571Z,-9.50
2022-12-13T06:29:04.409Z,-9.40
2022-12-13T06:31:32.825Z,-9.40
2022-12-13T06:34:14.944Z,-9.50
2022-12-13T06:36:42.538Z,-9.50
2022-12-13T06:39:09.373Z,-9.50
2022-12-13T06:41:36.979Z,-9.50
2022-12-13T06:44:05.335Z,-9.40
2022-12-13T06:46:32.475Z,-9.30
2022-12-13T06:48:59.454Z,-9.40
2022-12-13T06:51:32.986Z,-9.30
2022-12-13T06:54:01.555Z,-9.30
2022-12-13T06:56:28.898Z,-9.30
2022-12-13T06:59:01.963Z,-9.40
2022-12-13T07:01:36.999Z,-9.40
2022-12-13T07:04:05.744Z,-9.40
2022-12-13T07:06:52.944Z,-9.30
2022-12-13T07:09:19.895Z,-9.30
2022-12-13T07:11:52.014Z,-9.40
2022-12-13T07:14:19.907Z,-9.40
2022-12-13T07:16:46.810Z,-9.40
2022-12-13T07:19:23.949Z,-9.40
2022-12-13T07:21:52.101Z,-9.40
2022-12-13T07:24:19.423Z,-9.40
2022-12-13T07:26:46.641Z,-9.50
2022-12-13T07:29:13.679Z,-9.40
2022-12-13T07:31:49.762Z,-9.40
2022-12-13T07:34:19.010Z,-9.40
2022-12-13T07:36:46.026Z,-9.40
2022-12-13T07:39:12.932Z,-9.30
2022-12-13T07:41:39.800Z,-9.30
2022-12-13T07:44:07.611Z,-9.20
2022-12-13T07:46:34.600Z,-9.20
2022-12-13T07:49:02.963Z,-9.20
2022-12-13T07:51:30.126Z,-9.10
2022-12-13T07:53:57.623Z,-9.10
2022-12-13T07:56:26.798Z,-9.00
2022-12-13T07:58:53.695Z,-8.90
2022-12-13T08:01:20.624Z,-8.80
2022-12-13T08:03:48.495Z,-8.60
2022-12-13T08:06:15.401Z,-8.50
2022-12-13T08:08:42.233Z,-8.30
2022-12-13T08:11:10.796Z,-8.20
2022-12-13T08:13:37.860Z,-8.10
2022-12-13T08:16:26.684Z,-8.00
2022-12-13T08:19:01.847Z,-8.00
2022-12-13T08:22:02.435Z,-8.00
2022-12-13T08:24:22.564Z,-7.90
2022-12-13T08:26:49.353Z,-7.80
2022-12-13T08:29:23.450Z,-7.80
2022-12-13T08:32:06.154Z,-7.80
2022-12-13T08:34:33.125Z,-7.70
2022-12-13T08:37:01.852Z,-7.60
2022-12-13T08:39:35.589Z,-7.50
2022-12-13T08:42:17.021Z,-7.40
2022-12-13T08:44:49.048Z,-7.40
2022-12-13T08:47:23.062Z,-7.40
2022-12-13T08:49:52.582Z,-7.30
2022-12-13T08:52:20.531Z,-7.30
2022-12-13T08:54:47.418Z,-7.20
2022-12-13T08:57:14.180Z,-7.10
2022-12-13T08:59:41.484Z,-7.00
2022-12-13T09:02:13.385Z,-7.00
2022-12-13T09:04:42.405Z,-7.00
2022-12-13T09:07:09.330Z,-6.90
2022-12-13T09:09:38.546Z,-6.80
2022-12-13T09:12:10.979Z,-6.70
2022-12-13T09:14:52.506Z,-6.60
2022-12-13T09:17:37.139Z,-6.50
2022-12-13T09:20:09.697Z,-6.50
2022-12-13T09:23:02.393Z,-6.60
2022-12-13T09:25:37.315Z,-6.60
2022-12-13T09:28:06.174Z,-6.60
2022-12-13T09:30:35.406Z,-6.50
2022-12-13T09:33:28.431Z,-6.30
2022-12-13T09:35:52.344Z,-6.20
2022-12-13T09:38:19.638Z,-6.10
2022-12-13T09:40:47.730Z,-6.10
2022-12-13T09:43:22.979Z,-6.00
2022-12-13T09:46:01.629Z,-6.00
2022-12-13T09:48:29.483Z,-6.10
2022-12-13T09:51:18.231Z,-6.00
2022-12-13T09:53:51.085Z,-5.90
2022-12-13T09:56:21.638Z,-5.80
2022-12-13T09:58:49.854Z,-5.80
2022-12-13T10:01:22.406Z,-5.60
2022-12-13T10:03:52.487Z,-5.60
2022-12-13T10:06:23.730Z,-5.50
2022-12-13T10:08:57.521Z,-5.30
2022-12-13T10:11:32.263Z,-5.10
2022-12-13T10:14:09.926Z,-4.80
2022-12-13T10:16:37.361Z,-4.60
2022-12-13T10:19:29.155Z,-4.60
2022-12-13T10:22:01.299Z,-4.60
2022-12-13T10:24:47.805Z,-4.50
2022-12-13T10:27:19.526Z,-4.60
2022-12-13T10:30:05.727Z,-4.50
2022-12-13T10:32:37.630Z,-4.60
2022-12-13T10:35:25.112Z,-4.60
2022-12-13T10:37:53.101Z,-4.40
2022-12-13T10:40:32.311Z,-4.10
2022-12-13T10:43:23.572Z,-3.90
2022-12-13T10:45:57.603Z,-3.60
2022-12-13T10:48:27.136Z,-3.30
2022-12-13T10:50:58.655Z,-3.00
2022-12-13T10:53:29.053Z,-2.80
2022-12-13T10:55:56.513Z,-2.70
2022-12-13T10:58:40.032Z,-2.50
2022-12-13T11:01:29.495Z,-2.50
2022-12-13T11:04:02.372Z,-2.30
2022-12-13T11:06:43.443Z,-2.30
2022-12-13T11:09:23.972Z,-2.20
2022-12-13T11:11:58.294Z,-2.20
2022-12-13T11:14:31.717Z,-2.20
2022-12-13T11:17:08.014Z,-2.10
2022-12-13T11:19:40.262Z,-2.00
2022-12-13T11:22:10.362Z,-2.00
2022-12-13T11:24:38.275Z,-1.90
2022-12-13T11:27:20.971Z,-1.80
2022-12-13T11:30:06.499Z,-1.70
2022-12-13T11:32:46.093Z,-1.50
2022-12-13T11:35:22.990Z,-1.30
2022-12-13T11:38:04.973Z,-1.10
2022-12-13T11:40:37.984Z,-1.10
2022-12-13T11:43:04.830Z,-1.10
2022-12-13T11:45:36.344Z,-1.00
2022-12-13T11:48:09.447Z,-0.90
2022-12-13T11:50:42.655Z,-0.80
2022-12-13T11:53:19.045Z,-0.80
2022-12-13T11:55:52.152Z,-0.70
2022-12-13T12:01:16.678Z,-0.60
2022-12-13T12:03:54.535Z,-0.50
2022-12-13T12:06:29.574Z,-0.40
2022-12-13T12:08:57.786Z,-0.30
2022-12-13T12:11:33.878Z,-0.30
2022-12-13T12:14:03.295Z,-0.30
2022-12-13T12:16:38.915Z,-0.30
2022-12-13T12:19:15.902Z,-0.40
2022-12-13T12:22:12.710Z,-0.50
2022-12-13T12:24:40.587Z,-0.50
2022-12-13T12:27:22.359Z,-0.30
2022-12-13T12:29:50.644Z,-0.20
2022-12-13T12:32:26.671Z,-0.20
2022-12-13T12:35:02.531Z,-0.20
2022-12-13T12:37:35.803Z,-0.20
2022-12-13T12:40:15.432Z,-0.20
2022-12-13T12:43:13.868Z,-0.30
2022-12-13T12:45:55.782Z,-0.30
2022-12-13T12:48:52.017Z,-0.30
2022-12-13T12:51:24.837Z,-0.30
2022-12-13T12:53:58.567Z,-0.20
2022-12-13T12:56:37.817Z,-0.20
2022-12-13T12:59:27.492Z,-0.20
2022-12-13T13:02:05.767Z,-0.20
2022-12-13T13:04:39.204Z,-0.20
2022-12-13T13:07:23.045Z,-0.30
2022-12-13T13:09:55.161Z,-0.30
2022-12-13T13:12:28.824Z,-0.30
2022-12-13T13:14:57.894Z,-0.20
2022-12-13T13:17:24.834Z,-0.30
2022-12-13T13:20:12.447Z,-0.30
2022-12-13T13:22:44.140Z,-0.40
2022-12-13T13:25:22.188Z,-0.50
2022-12-13T13:27:53.097Z,-0.40
2022-12-13T13:30:23.103Z,-0.40
2022-12-13T13:32:53.355Z,-0.40
2022-12-13T13:35:33.006Z,-0.40
2022-12-13T13:38:00.943Z,-0.30
2022-12-13T13:40:30.370Z,-0.20
2022-12-13T13:43:01.942Z,-0.20
2022-12-13T13:45:28.817Z,-0.10
2022-12-13T13:47:58.601Z,0.00
2022-12-13T13:50:48.422Z,0.00
2022-12-13T13:53:34.249Z,0.00
2022-12-13T13:56:23.175Z,0.00
2022-12-13T13:58:49.964Z,0.00
2022-12-13T14:01:35.625Z,0.00
2022-12-13T14:04:06.039Z,0.10
2022-12-13T14:07:00.936Z,0.00
2022-12-13T14:09:49.736Z,0.10
2022-12-13T14:12:55.435Z,0.20
2022-12-13T14:15:22.484Z,0.20
2022-12-13T14:17:49.316Z,0.30
2022-12-13T14:20:22.225Z,0.20
2022-12-13T14:23:01.489Z,0.20
2022-12-13T14:25:42.326Z,0.20
2022-12-13T14:28:20.390Z,0.10
2022-12-13T14:30:47.987Z,0.10
2022-12-13T14:33:25.226Z,0.10
2022-12-13T14:35:57.029Z,0.10
2022-12-13T14:38:25.441Z,0.10
2022-12-13T14:40:58.473Z,-0.10
2022-12-13T14:43:35.020Z,-0.20
2022-12-13T14:46:06.669Z,-0.20
2022-12-13T14:48:43.195Z,-0.30
2022-12-13T14:51:39.752Z,-0.50
2022-12-13T14:54:07.869Z,-0.60
2022-12-13T14:56:34.854Z,-0.80
2022-12-13T14:59:02.775Z,-0.90
2022-12-13T15:01:29.931Z,-0.90
2022-12-13T15:04:36.112Z,-0.90
2022-12-13T15:07:06.506Z,-1.00
2022-12-13T15:09:41.674Z,-1.00
2022-12-13T15:12:24.519Z,-1.00
2022-12-13T15:14:55.833Z,-1.00
2022-12-13T15:17:31.256Z,-1.00
2022-12-13T15:20:00.904Z,-1.10
2022-12-13T15:23:02.706Z,-1.00
2022-12-13T15:25:33.070Z,-1.10
2022-12-13T15:28:00.675Z,-1.10
2022-12-13T15:30:31.842Z,-1.10
2022-12-13T15:33:03.105Z,-1.10
2022-12-13T15:35:30.214Z,-1.20
2022-12-13T15:37:57.452Z,-1.20
2022-12-13T15:40:27.389Z,-1.20
2022-12-13T15:42:57.705Z,-1.20
2022-12-13T15:45:26.715Z,-1.10
2022-12-13T15:47:56.169Z,-1.10
2022-12-13T15:50:35.221Z,-1.00
2022-12-13T15:53:03.446Z,-1.00
2022-12-13T15:55:35.407Z,-1.00
2022-12-13T15:58:02.800Z,-1.10
2022-12-13T16:00:31.918Z,-1.10
2022-12-13T16:03:09.780Z,-1.10
2022-12-13T16:05:51.093Z,-1.10
2022-12-13T16:08:20.237Z,-1.00
2022-12-13T16:10:50.255Z,-1.10
2022-12-13T16:13:27.755Z,-1.10
2022-12-13T16:16:09.306Z,-1.10
2022-12-13T16:18:50.907Z,-1.10
2022-12-13T16:21:18.001Z,-1.10
2022-12-13T16:23:49.111Z,-1.10
2022-12-13T16:26:21.426Z,-1.10
2022-12-13T16:28:48.337Z,-1.10
2022-12-13T16:31:22.304Z,-1.20
2022-12-13T16:33:49.470Z,-1.20
2022-12-13T16:36:21.296Z,-1.20
2022-12-13T16:38:51.496Z,-1.30
2022-12-13T16:41:22.149Z,-1.30
2022-12-13T16:43:56.072Z,-1.30
2022-12-13T16:47:18.242Z,-1.30
2022-12-13T16:49:25.562Z,-1.20
2022-12-13T16:51:53.008Z,-1.20
2022-12-13T16:54:21.122Z,-1.10
2022-12-13T16:56:48.818Z,-1.10
2022-12-13T16:59:19.817Z,-1.10
2022-12-13T17:01:46.733Z,-1.10
2022-12-13T17:04:20.474Z,-1.20
2022-12-13T17:06:55.010Z,-1.30
2022-12-13T17:09:23.026Z,-1.40
2022-12-13T17:11:49.856Z,-1.40
2022-12-13T17:14:19.234Z,-1.40
2022-12-13T17:16:46.124Z,-1.40
2022-12-13T17:19:15.546Z,-1.40
2022-12-13T17:21:42.758Z,-1.40
2022-12-13T17:24:09.739Z,-1.30
2022-12-13T17:26:36.724Z,-1.30
2022-12-13T17:29:03.735Z,-1.20
2022-12-13T17:31:35.221Z,-1.30
2022-12-13T17:34:03.214Z,-1.20
2022-12-13T17:36:31.618Z,-1.10
2022-12-13T17:39:00.910Z,-1.10
2022-12-13T17:41:27.893Z,-1.10
2022-12-13T17:43:57.968Z,-1.10
2022-12-13T17:46:25.447Z,-1.10
2022-12-13T17:48:52.455Z,-1.00
2022-12-13T17:51:19.462Z,-0.90
2022-12-13T17:53:46.660Z,-1.00
2022-12-13T17:56:17.759Z,-1.00
2022-12-13T17:58:44.736Z,-1.00
2022-12-13T18:01:21.128Z,-1.00
2022-12-13T18:03:54.120Z,-1.00
2022-12-13T18:06:21.233Z,-1.10
2022-12-13T18:08:50.909Z,-1.10
2022-12-13T18:11:35.051Z,-1.10
2022-12-13T18:14:06.361Z,-1.10
2022-12-13T18:16:37.361Z,-1.10
2022-12-13T18:19:08.194Z,-1.20
2022-12-13T18:21:36.857Z,-1.20
2022-12-13T18:24:07.271Z,-1.30
2022-12-13T18:26:34.714Z,-1.40
2022-12-13T18:29:02.213Z,-1.40
2022-12-13T18:31:29.226Z,-1.40
2022-12-13T18:33:56.259Z,-1.40
2022-12-13T18:36:24.407Z,-1.40
2022-12-13T18:38:51.889Z,-1.40
2022-12-13T18:41:26.364Z,-1.50
2022-12-13T18:44:03.572Z,-1.50
2022-12-13T18:46:32.517Z,-1.60
2022-12-13T18:49:02.139Z,-1.50
2022-12-13T18:51:29.012Z,-1.50
2022-12-13T18:53:56.341Z,-1.50
2022-12-13T18:56:25.921Z,-1.50
2022-12-13T18:58:54.247Z,-1.50
2022-12-13T19:01:23.093Z,-1.50
2022-12-13T19:03:50.976Z,-1.50
2022-12-13T19:06:19.620Z,-1.40
2022-12-13T19:08:51.503Z,-1.30
2022-12-13T19:11:19.026Z,-1.30
2022-12-13T19:13:48.364Z,-1.40
2022-12-13T19:16:19.590Z,-1.30
2022-12-13T19:18:48.960Z,-1.20
2022-12-13T19:21:17.652Z,-1.30
2022-12-13T19:23:49.473Z,-1.30
2022-12-13T19:26:22.692Z,-1.30
2022-12-13T19:28:52.671Z,-1.40
2022-12-13T19:31:19.700Z,-1.40
2022-12-13T19:33:46.792Z,-1.30
2022-12-13T19:36:13.652Z,-1.40
2022-12-13T19:38:41.853Z,-1.50
2022-12-13T19:41:15.591Z,-1.40
2022-12-13T19:43:46.476Z,-1.40
2022-12-13T19:46:19.736Z,-1.30
2022-12-13T19:48:47.070Z,-1.30
2022-12-13T19:51:14.561Z,-1.30
2022-12-13T19:53:43.909Z,-1.30
2022-12-13T19:56:12.006Z,-1.20
2022-12-13T19:58:39.338Z,-1.10
2022-12-13T20:01:09.252Z,-1.10
2022-12-13T20:03:40.499Z,-1.10
2022-12-13T20:06:08.435Z,-1.10
2022-12-13T20:08:35.669Z,-1.10
2022-12-13T20:11:07.434Z,-1.20
2022-12-13T20:13:40.347Z,-1.10
2022-12-13T20:16:08.011Z,-1.10
2022-12-13T20:18:37.281Z,-1.10
2022-12-13T20:21:13.666Z,-1.10
2022-12-13T20:23:49.417Z,-1.00
2022-12-13T20:26:20.658Z,-1.00
2022-12-13T20:28:47.987Z,-1.00
2022-12-13T20:31:25.148Z,-1.10
2022-12-13T20:33:56.043Z,-1.00
2022-12-13T20:36:25.144Z,-1.00
2022-12-13T20:38:55.971Z,-0.90
2022-12-13T20:41:23.712Z,-0.90
2022-12-13T20:43:51.667Z,-1.00
2022-12-13T20:46:18.737Z,-1.00
2022-12-13T20:48:46.565Z,-0.90
2022-12-13T20:51:17.293Z,-0.80
2022-12-13T20:53:45.122Z,-0.80
2022-12-13T20:56:16.740Z,-0.90
2022-12-13T20:58:44.145Z,-1.00
2022-12-13T21:01:21.588Z,-0.90
2022-12-13T21:03:49.594Z,-0.90
2022-12-13T21:06:16.667Z,-0.80
2022-12-13T21:08:51.923Z,-0.70
2022-12-13T21:11:24.896Z,-0.70
2022-12-13T21:13:51.770Z,-0.70
2022-12-13T21:16:19.617Z,-0.60
2022-12-13T21:18:46.946Z,-0.60
2022-12-13T21:21:14.115Z,-0.60
2022-12-13T21:23:45.910Z,-0.60
2022-12-13T21:26:15.079Z,-0.70
2022-12-13T21:28:44.503Z,-0.80
2022-12-13T21:31:13.906Z,-0.80
2022-12-13T21:33:40.988Z,-0.70
2022-12-13T21:36:10.601Z,-0.70
2022-12-13T21:38:37.801Z,-0.60
2022-12-13T21:41:05.413Z,-0.60
2022-12-13T21:43:36.909Z,-0.50
2022-12-13T21:46:13.982Z,-0.50
2022-12-13T21:48:42.013Z,-0.60
2022-12-13T21:51:11.945Z,-0.60
2022-12-13T21:53:38.820Z,-0.50
2022-12-13T21:56:24.934Z,-0.50
2022-12-13T21:59:10.346Z,-0.50
2022-12-13T22:02:01.859Z,-0.50
2022-12-13T22:04:31.103Z,-0.50
2022-12-13T22:08:36.594Z,-0.60
2022-12-13T22:11:21.116Z,-0.60
2022-12-13T22:13:48.974Z,-0.50
2022-12-13T22:16:18.226Z,-0.50
2022-12-13T22:18:46.559Z,-0.40
2022-12-13T22:21:13.396Z,-0.50
2022-12-13T22:23:42.436Z,-0.50
2022-12-13T22:26:09.395Z,-0.50
2022-12-13T22:28:41.677Z,-0.60
2022-12-13T22:31:56.383Z,-0.50
2022-12-13T22:34:23.480Z,-0.50
2022-12-13T22:36:52.544Z,-0.40
2022-12-13T22:39:22.577Z,-0.50
2022-12-13T22:41:51.467Z,-0.50
2022-12-13T22:44:20.587Z,-0.50
2022-12-13T22:46:49.982Z,-0.40
2022-12-13T22:49:17.259Z,-0.50
2022-12-13T22:51:44.295Z,-0.40
2022-12-13T22:54:11.107Z,-0.40
2022-12-13T22:56:38.231Z,-0.40
2022-12-13T22:59:08.020Z,-0.30
2022-12-13T23:01:37.775Z,-0.30
2022-12-13T23:04:06.332Z,-0.30
2022-12-13T23:06:37.768Z,-0.30
2022-12-13T23:09:15.526Z,-0.30
2022-12-13T23:12:01.072Z,-0.30
2022-12-13T23:14:33.220Z,-0.30
2022-12-13T23:17:04.439Z,-0.40
2022-12-13T23:19:50.348Z,-0.50
2022-12-13T23:22:19.253Z,-0.50
2022-12-13T23:24:48.357Z,-0.50
2022-12-13T23:27:15.849Z,-0.40
2022-12-13T23:29:42.814Z,-0.40
2022-12-13T23:32:15.440Z,-0.30
2022-12-13T23:34:44.945Z,-0.40
2022-12-13T23:37:11.942Z,-0.40
2022-12-13T23:39:39.046Z,-0.50
2022-12-13T23:42:08.174Z,-0.60
2022-12-13T23:44:38.357Z,-0.50
2022-12-13T23:47:05.404Z,-0.60
2022-12-13T23:49:32.357Z,-0.70
2022-12-13T23:52:01.443Z,-0.90
2022-12-13T23:54:28.364Z,-0.90
2022-12-13T23:56:57.529Z,-0.80
2022-12-13T23:59:26.185Z,-0.80
